createdAt,value
2018-05-13T00:03:03.582Z,16.73
2018-05-13T00:08:04.928Z,17.40
2018-05-13T00:13:06.270Z,18.30
2018-05-13T00:18:07.582Z,16.97
2018-05-13T00:23:08.914Z,17.77
2018-05-13T00:28:10.241Z,16.77
2018-05-13T00:33:12.290Z,17.37
2018-05-13T00:38:13.599Z,19.33
2018-05-13T00:43:14.951Z,18.43
2018-05-13T00:48:16.257Z,18.50
2018-05-13T00:53:17.563Z,17.23
2018-05-13T00:58:18.922Z,17.03
2018-05-13T01:03:20.268Z,18.17
2018-05-13T01:08:21.577Z,17.03
2018-05-13T01:13:23.619Z,17.20
2018-05-13T01:18:24.927Z,17.60
2018-05-13T01:23:26.229Z,18.43
2018-05-13T01:28:27.545Z,18.37
2018-05-13T01:33:29.603Z,18.60
2018-05-13T01:38:30.905Z,19.27
2018-05-13T01:43:32.222Z,18.90
2018-05-13T01:48:33.539Z,19.13
2018-05-13T01:53:35.603Z,18.37
2018-05-13T01:58:36.918Z,17.73
2018-05-13T02:03:39.054Z,19.03
2018-05-13T02:08:40.310Z,18.50
2018-05-13T02:13:41.618Z,18.77
2018-05-13T02:18:43.690Z,17.87
2018-05-13T02:23:45.017Z,18.60
2018-05-13T02:28:46.329Z,16.77
2018-05-13T02:33:47.613Z,17.23
2018-05-13T02:38:48.926Z,18.03
2018-05-13T02:43:50.274Z,17.30
2018-05-13T02:48:51.592Z,17.07
2018-05-13T02:53:52.905Z,17.20
2018-05-13T02:58:54.214Z,18.20
2018-05-13T03:03:55.994Z,17.87
2018-05-13T03:08:57.504Z,17.30
2018-05-13T03:13:58.988Z,18.03
2018-05-13T03:19:00.320Z,18.20
2018-05-13T03:24:01.647Z,19.10
2018-05-13T03:29:03.002Z,18.80
2018-05-13T03:34:04.341Z,17.73
2018-05-13T03:39:05.670Z,20.67
2018-05-13T03:44:07.737Z,19.00
2018-05-13T03:49:09.062Z,20.97
2018-05-13T03:54:11.313Z,19.03
2018-05-13T03:59:12.645Z,19.67
2018-05-13T04:04:13.981Z,18.63
2018-05-13T04:09:33.773Z,19.07
2018-05-13T04:14:54.305Z,20.60
2018-05-13T04:19:55.622Z,19.83
2018-05-13T04:24:57.725Z,20.80
2018-05-13T04:29:59.039Z,19.37
2018-05-13T04:35:00.373Z,19.70
2018-05-13T04:40:01.690Z,19.53
2018-05-13T04:45:03.758Z,19.83
2018-05-13T04:50:05.074Z,19.50
2018-05-13T04:55:07.178Z,20.00
2018-05-13T05:00:09.239Z,21.60
2018-05-13T05:05:11.537Z,19.53
2018-05-13T05:10:12.876Z,20.90
2018-05-13T05:15:14.208Z,22.27
2018-05-13T05:20:15.555Z,21.37
2018-05-13T05:25:16.857Z,20.20
2018-05-13T05:30:18.959Z,20.50
2018-05-13T05:35:21.034Z,20.87
2018-05-13T05:40:22.350Z,19.13
2018-05-13T05:45:24.402Z,21.40
2018-05-13T05:50:25.725Z,21.40
2018-05-13T05:55:27.107Z,20.97
2018-05-13T06:00:28.470Z,22.10
2018-05-13T06:05:30.804Z,21.30
2018-05-13T06:10:32.206Z,21.67
2018-05-13T06:15:33.594Z,21.17
2018-05-13T06:20:34.922Z,21.70
2018-05-13T06:25:37.002Z,22.37
2018-05-13T06:30:38.338Z,21.30
2018-05-13T06:35:39.791Z,20.60
2018-05-13T06:40:41.107Z,21.60
2018-05-13T06:45:42.418Z,20.30
2018-05-13T06:50:43.730Z,21.23
2018-05-13T06:55:45.281Z,20.90
2018-05-13T07:00:46.590Z,21.60
2018-05-13T07:05:47.952Z,20.90
2018-05-13T07:10:50.007Z,21.17
2018-05-13T07:15:52.307Z,21.10
2018-05-13T07:20:53.679Z,20.57
2018-05-13T07:25:54.989Z,21.53
2018-05-13T07:30:56.327Z,21.67
2018-05-13T07:35:57.648Z,21.50
2018-05-13T07:40:59.049Z,21.37
2018-05-13T07:46:00.385Z,21.23
2018-05-13T07:51:01.830Z,21.03
2018-05-13T07:56:03.094Z,21.50
2018-05-13T08:01:04.421Z,21.70
2018-05-13T08:06:05.762Z,21.00
2018-05-13T08:11:07.830Z,21.23
2018-05-13T08:16:09.171Z,21.03
2018-05-13T08:21:10.516Z,22.13
2018-05-13T08:26:11.832Z,21.70
2018-05-13T08:31:13.175Z,22.97
2018-05-13T08:36:14.516Z,22.07
2018-05-13T08:41:16.606Z,21.83
2018-05-13T08:46:17.922Z,21.17
2018-05-13T08:51:19.226Z,19.13
2018-05-13T08:56:20.575Z,21.10
2018-05-13T09:01:21.892Z,21.83
2018-05-13T09:06:23.260Z,20.40
2018-05-13T09:11:25.328Z,19.23
2018-05-13T09:16:26.673Z,17.83
2018-05-13T09:21:28.043Z,18.47
2018-05-13T09:26:29.386Z,18.70
2018-05-13T09:31:30.762Z,19.20
2018-05-13T09:36:32.111Z,19.93
2018-05-13T09:41:33.464Z,17.67
2018-05-13T09:46:34.808Z,18.60
2018-05-13T09:51:36.867Z,16.40
2018-05-13T09:56:38.190Z,16.27
2018-05-13T10:01:40.248Z,14.60
2018-05-13T10:06:41.568Z,15.93
2018-05-13T10:11:42.906Z,17.10
2018-05-13T10:16:44.254Z,17.20
2018-05-13T10:21:45.579Z,18.87
2018-05-13T10:26:46.928Z,17.07
2018-05-13T10:31:48.296Z,15.33
2018-05-13T10:36:49.785Z,15.83
2018-05-13T10:41:51.151Z,13.27
2018-05-13T10:46:52.541Z,15.70
2018-05-13T10:51:53.918Z,14.50
2018-05-13T10:56:55.309Z,13.50
2018-05-13T11:01:56.669Z,14.60
2018-05-13T11:06:58.089Z,13.37
2018-05-13T11:11:59.546Z,13.47
2018-05-13T11:17:04.948Z,13.90
2018-05-13T11:22:06.366Z,15.07
2018-05-13T11:27:07.742Z,12.70
2018-05-13T11:32:09.891Z,13.27
2018-05-13T11:37:11.286Z,10.07
2018-05-13T11:42:12.701Z,11.30
2018-05-13T11:47:14.044Z,8.77
2018-05-13T11:52:15.475Z,9.97
2018-05-13T11:57:16.816Z,13.60
2018-05-13T12:02:18.192Z,12.90
2018-05-13T12:07:20.263Z,12.70
2018-05-13T12:12:21.582Z,12.03
2018-05-13T12:17:23.627Z,11.30
2018-05-13T12:22:24.946Z,10.83
2018-05-13T12:27:26.267Z,10.00
2018-05-13T12:32:28.331Z,10.40
2018-05-13T12:37:29.697Z,10.80
2018-05-13T12:42:31.097Z,10.23
2018-05-13T12:47:32.466Z,10.67
2018-05-13T12:52:33.811Z,11.20
2018-05-13T12:57:35.219Z,14.10
2018-05-13T13:02:37.350Z,10.00
2018-05-13T13:07:38.694Z,8.80
2018-05-13T13:12:40.030Z,8.40
2018-05-13T13:17:41.461Z,8.70
2018-05-13T13:22:42.831Z,7.83
2018-05-13T13:27:44.156Z,8.10
2018-05-13T13:32:45.605Z,8.27
2018-05-13T13:37:47.252Z,8.20
2018-05-13T13:42:49.381Z,7.70
2018-05-13T13:47:50.752Z,7.23
2018-05-13T13:52:52.086Z,7.20
2018-05-13T13:57:53.432Z,7.47
2018-05-13T14:02:55.526Z,7.40
2018-05-13T14:07:57.034Z,6.40
2018-05-13T14:12:59.082Z,6.53
2018-05-13T14:18:00.793Z,7.33
2018-05-13T14:23:02.118Z,7.43
2018-05-13T14:28:06.665Z,6.47
2018-05-13T14:33:08.024Z,7.63
2018-05-13T14:38:09.408Z,6.13
2018-05-13T14:43:10.878Z,6.93
2018-05-13T14:48:12.221Z,8.00
2018-05-13T14:53:13.538Z,7.37
2018-05-13T14:58:14.886Z,6.37
2018-05-13T15:03:16.222Z,6.37
2018-05-13T15:08:17.562Z,5.50
2018-05-13T15:13:18.895Z,6.20
2018-05-13T15:18:20.240Z,5.27
2018-05-13T15:23:21.544Z,5.40
2018-05-13T15:28:22.878Z,5.80
2018-05-13T15:33:24.926Z,5.30
2018-05-13T15:38:26.268Z,5.93
2018-05-13T15:43:28.453Z,6.10
2018-05-13T15:48:29.778Z,5.10
2018-05-13T15:53:31.850Z,4.33
2018-05-13T15:58:36.672Z,5.13
2018-05-13T16:03:39.762Z,4.60
2018-05-13T16:08:41.132Z,5.27
2018-05-13T16:13:42.452Z,4.87
2018-05-13T16:18:43.823Z,5.40
2018-05-13T16:23:45.194Z,5.37
2018-05-13T16:28:47.017Z,5.57
2018-05-13T16:33:49.085Z,5.23
2018-05-13T16:38:50.419Z,5.40
2018-05-13T16:43:51.756Z,6.83
2018-05-13T16:48:53.076Z,7.13
2018-05-13T16:53:54.390Z,7.03
2018-05-13T16:58:55.917Z,6.40
2018-05-13T17:03:58.000Z,6.60
2018-05-13T17:08:59.315Z,6.73
2018-05-13T17:14:01.412Z,6.80
2018-05-13T17:19:02.834Z,5.50
2018-05-13T17:24:04.182Z,4.50
2018-05-13T17:29:06.058Z,5.67
2018-05-13T17:34:07.680Z,5.40
2018-05-13T17:39:09.059Z,5.10
2018-05-13T17:44:11.306Z,5.20
2018-05-13T17:49:12.784Z,6.43
2018-05-13T17:54:14.095Z,6.60
2018-05-13T17:59:15.760Z,7.80
2018-05-13T18:04:17.584Z,10.70
2018-05-13T18:09:18.921Z,14.50
2018-05-13T18:14:20.255Z,15.00
2018-05-13T18:19:22.329Z,14.60
2018-05-13T18:24:23.731Z,16.07
2018-05-13T18:29:25.011Z,16.07
2018-05-13T18:34:26.363Z,12.40
2018-05-13T18:39:28.094Z,12.73
2018-05-13T18:44:29.449Z,13.57
2018-05-13T18:49:30.779Z,12.87
2018-05-13T18:54:32.311Z,12.40
2018-05-13T18:59:33.658Z,11.07
2018-05-13T19:04:36.931Z,10.50
2018-05-13T19:09:38.346Z,10.33
2018-05-13T19:14:39.767Z,10.63
2018-05-13T19:19:41.124Z,10.57
2018-05-13T19:24:42.459Z,10.80
2018-05-13T19:29:43.818Z,11.67
2018-05-13T19:34:52.137Z,12.33
2018-05-13T19:39:54.409Z,11.63
2018-05-13T19:44:56.577Z,12.70
2018-05-13T19:49:57.894Z,12.97
2018-05-13T19:54:59.246Z,15.50
2018-05-13T20:00:00.574Z,15.73
2018-05-13T20:05:01.932Z,14.90
2018-05-13T20:10:03.502Z,16.07
2018-05-13T20:15:05.761Z,16.10
2018-05-13T20:20:07.098Z,17.83
2018-05-13T20:25:08.430Z,16.40
2018-05-13T20:30:09.800Z,17.43
2018-05-13T20:35:11.854Z,17.70
2018-05-13T20:40:13.196Z,17.90
2018-05-13T20:45:14.514Z,17.83
2018-05-13T20:50:15.850Z,18.93
2018-05-13T20:55:17.207Z,17.67
2018-05-13T21:00:18.534Z,19.30
2018-05-13T21:05:19.895Z,19.83
2018-05-13T21:10:21.562Z,21.30
2018-05-13T21:15:22.874Z,21.33
2018-05-13T21:20:24.202Z,21.37
2018-05-13T21:25:26.304Z,22.67
2018-05-13T21:30:27.657Z,22.63
2018-05-13T21:35:28.985Z,21.73
2018-05-13T21:40:30.330Z,23.87
2018-05-13T21:45:31.683Z,22.23
2018-05-13T21:50:32.990Z,23.50
2018-05-13T21:55:34.303Z,21.50
2018-05-13T22:00:35.627Z,24.60
2018-05-13T22:05:37.138Z,23.00
2018-05-13T22:10:39.189Z,22.60
2018-05-13T22:15:40.514Z,23.70
2018-05-13T22:20:41.835Z,24.80
2018-05-13T22:25:43.169Z,24.00
2018-05-13T22:30:44.510Z,23.80
2018-05-13T22:35:45.859Z,23.60
2018-05-13T22:40:47.194Z,24.43
2018-05-13T22:45:48.514Z,22.23
2018-05-13T22:50:49.852Z,24.30
2018-05-13T22:55:51.903Z,23.43
2018-05-13T23:00:53.234Z,24.33
2018-05-13T23:05:54.578Z,24.67
2018-05-13T23:10:55.908Z,23.90
2018-05-13T23:15:57.255Z,24.63
2018-05-13T23:20:59.350Z,22.70
2018-05-13T23:26:00.682Z,22.17
2018-05-13T23:31:02.023Z,22.50
2018-05-13T23:36:03.377Z,20.90
2018-05-13T23:41:04.718Z,21.17
2018-05-13T23:46:06.029Z,24.20
2018-05-13T23:51:07.374Z,23.50
2018-05-13T23:56:09.439Z,26.70
